createdAt,value
2022-08-26T00:01:32.379Z,19.60
2022-08-26T00:11:36.991Z,19.60
2022-08-26T00:21:38.988Z,19.30
2022-08-26T00:31:42.623Z,19.00
2022-08-26T00:41:47.980Z,19.20
2022-08-26T00:51:55.348Z,19.20
2022-08-26T01:01:57.911Z,18.80
2022-08-26T01:12:02.905Z,18.60
2022-08-26T01:22:26.689Z,18.60
2022-08-26T01:32:33.139Z,18.70
2022-08-26T01:42:35.255Z,18.50
2022-08-26T01:52:44.852Z,18.60
2022-08-26T02:02:55.586Z,18.70
2022-08-26T02:12:57.693Z,18.70
2022-08-26T02:22:59.939Z,18.80
2022-08-26T02:33:03.189Z,18.60
2022-08-26T02:43:05.512Z,18.50
2022-08-26T02:53:12.867Z,18.30
2022-08-26T03:03:15.685Z,18.20
2022-08-26T03:13:17.706Z,18.10
2022-08-26T03:23:19.819Z,18.00
2022-08-26T03:33:21.994Z,17.90
2022-08-26T03:43:23.958Z,17.80
2022-08-26T03:53:29.048Z,17.70
2022-08-26T04:03:37.620Z,17.70
2022-08-26T04:13:40.725Z,17.60
2022-08-26T04:23:47.180Z,17.80
2022-08-26T04:33:52.917Z,18.00
2022-08-26T04:43:55.315Z,18.10
2022-08-26T04:53:58.793Z,18.10
2022-08-26T05:04:02.091Z,18.40
2022-08-26T05:14:07.787Z,19.00
2022-08-26T05:58:04.675Z,22.00
2022-08-26T06:08:07.618Z,22.60
2022-08-26T06:18:12.587Z,23.40
2022-08-26T06:28:14.737Z,23.80
2022-08-26T06:38:17.595Z,23.90
2022-08-26T06:48:20.486Z,23.50
2022-08-26T07:09:52.534Z,24.90
2022-08-26T07:19:55.223Z,24.80
2022-08-26T07:29:57.466Z,25.60
2022-08-26T07:40:00.314Z,26.40
2022-08-26T07:50:15.709Z,25.90
2022-08-26T08:00:25.205Z,26.90
2022-08-26T08:11:05.919Z,26.80
2022-08-26T08:21:35.988Z,26.30
2022-08-26T08:31:56.997Z,28.10
2022-08-26T08:42:32.533Z,28.30
2022-08-26T08:53:05.919Z,28.20
2022-08-26T09:03:54.682Z,27.60
2022-08-26T09:14:04.676Z,29.00
2022-08-26T09:24:22.435Z,27.80
2022-08-26T09:35:30.762Z,27.70
2022-08-26T09:45:40.541Z,27.80
2022-08-26T09:56:34.623Z,28.30
2022-08-26T10:06:59.279Z,28.60
2022-08-26T10:17:08.953Z,28.50
2022-08-26T10:28:04.121Z,28.60
2022-08-26T10:38:17.005Z,28.40
2022-08-26T10:48:47.599Z,28.30
2022-08-26T10:59:15.065Z,28.70
2022-08-26T11:09:44.348Z,28.90
2022-08-26T11:20:00.896Z,28.60
2022-08-26T11:30:13.750Z,29.00
2022-08-26T11:40:30.059Z,29.10
2022-08-26T11:50:32.129Z,29.10
2022-08-26T12:00:54.717Z,29.20
2022-08-26T12:11:05.233Z,29.50
2022-08-26T12:21:14.320Z,29.20
2022-08-26T12:31:25.868Z,29.50
2022-08-26T12:41:49.947Z,29.50
2022-08-26T12:51:51.990Z,29.60
2022-08-26T13:02:03.407Z,29.60
2022-08-26T13:12:05.985Z,29.40
2022-08-26T13:22:13.537Z,29.30
2022-08-26T13:32:16.141Z,29.20
2022-08-26T13:42:18.431Z,29.30
2022-08-26T13:52:30.478Z,29.20
2022-08-26T14:02:33.582Z,29.20
2022-08-26T14:12:36.061Z,29.00
2022-08-26T14:22:52.074Z,29.20
2022-08-26T14:33:04.950Z,29.10
2022-08-26T14:43:08.412Z,28.90
2022-08-26T14:53:10.811Z,28.80
2022-08-26T15:13:22.315Z,28.70
2022-08-26T15:23:24.665Z,28.60
2022-08-26T15:33:27.346Z,28.60
2022-08-26T15:43:33.335Z,28.30
2022-08-26T15:53:40.853Z,28.40
2022-08-26T16:14:28.581Z,28.10
2022-08-26T16:24:30.918Z,27.90
2022-08-26T16:34:33.226Z,27.80
2022-08-26T16:44:35.336Z,27.60
2022-08-26T16:54:39.328Z,27.30
2022-08-26T17:04:41.368Z,27.10
2022-08-26T17:14:48.367Z,26.80
2022-08-26T17:24:53.761Z,26.60
2022-08-26T17:34:56.242Z,26.20
2022-08-26T17:45:11.773Z,26.00
2022-08-26T17:55:16.735Z,25.50
2022-08-26T18:05:19.601Z,25.20
2022-08-26T18:15:21.545Z,24.90
2022-08-26T18:25:24.028Z,24.50
2022-08-26T18:35:26.006Z,24.20
2022-08-26T18:45:33.569Z,23.90
2022-08-26T18:55:35.416Z,23.50
2022-08-26T19:05:50.604Z,23.10
2022-08-26T19:15:55.311Z,23.10
2022-08-26T21:59:14.458Z,20.60
2022-08-26T22:09:47.685Z,20.50
2022-08-26T22:31:18.107Z,20.50
2022-08-26T22:52:27.416Z,20.10
2022-08-26T23:02:29.960Z,20.10
2022-08-26T23:12:39.693Z,20.20
2022-08-26T23:33:46.547Z,19.80
